Time;durP1;ratioP1;P1;durP2;ratioP2;P2;SDS_P1;SDS_P2;PMS_P1;PMS_P2;Temp;Humidity;BMP_temperature;BMP_pressure;BME280_temperature;BME280_humidity;BME280_pressure;Samples;Min_cycle;Max_cycle;Signal;HPM_P1;HPM_P2
2021/03/22 00:01:43;;;;;;;6.15;2.20;;;20.30;42.30;;;;;;5083768;28;20074;-46
2021/03/22 00:04:09;;;;;;;5.60;2.35;;;20.30;42.30;;;;;;5092366;28;20033;-46
2021/03/22 00:06:34;;;;;;;7.68;2.20;;;20.30;42.30;;;;;;5092807;28;20048;-46
2021/03/22 00:09:00;;;;;;;4.85;2.42;;;20.30;42.30;;;;;;5092518;28;20052;-50
2021/03/22 00:11:26;;;;;;;5.13;2.22;;;20.30;42.30;;;;;;5091406;28;20040;-49
2021/03/22 00:13:52;;;;;;;8.25;2.33;;;20.30;42.30;;;;;;5092575;28;20052;-45
2021/03/22 00:16:18;;;;;;;4.20;2.20;;;20.30;42.20;;;;;;5092101;28;20035;-46
2021/03/22 00:18:44;;;;;;;6.55;2.78;;;20.30;42.20;;;;;;5093234;28;20032;-47
2021/03/22 00:21:13;;;;;;;5.28;1.98;;;20.30;42.20;;;;;;5091841;28;20563;-46
2021/03/22 00:23:38;;;;;;;6.88;2.53;;;20.30;42.20;;;;;;5092538;28;20487;-46
2021/03/22 00:26:05;;;;;;;4.57;1.77;;;20.30;42.20;;;;;;5092091;28;20028;-46
2021/03/22 00:28:31;;;;;;;7.22;2.28;;;20.30;42.20;;;;;;5092859;28;20040;-46
2021/03/22 00:30:57;;;;;;;4.75;2.17;;;20.30;42.10;;;;;;5092469;28;20465;-46
2021/03/22 00:33:23;;;;;;;8.02;2.67;;;20.30;42.10;;;;;;5091025;28;20702;-46
2021/03/22 00:35:50;;;;;;;6.03;2.20;;;20.30;42.10;;;;;;5090841;28;20427;-46
2021/03/22 00:38:17;;;;;;;8.68;2.80;;;20.30;42.10;;;;;;5091038;28;20461;-46
2021/03/22 00:40:44;;;;;;;5.07;2.05;;;20.30;42.10;;;;;;5091981;28;20028;-46
2021/03/22 00:43:11;;;;;;;7.78;2.40;;;20.30;42.10;;;;;;5091100;28;20381;-48
2021/03/22 00:45:37;;;;;;;5.10;2.20;;;20.30;42.00;;;;;;5084270;28;20386;-48
2021/03/22 00:48:04;;;;;;;4.30;1.88;;;20.30;42.00;;;;;;5070678;28;20032;-48
2021/03/22 00:50:33;;;;;;;4.95;2.42;;;20.30;42.00;;;;;;5071274;28;20024;-46
2021/03/22 00:52:59;;;;;;;6.43;2.00;;;20.30;42.00;;;;;;5071274;28;20382;-48
2021/03/22 00:55:26;;;;;;;5.95;2.42;;;20.30;42.00;;;;;;5069210;28;20027;-46
2021/03/22 00:57:52;;;;;;;6.38;2.35;;;20.30;41.90;;;;;;5071501;28;20036;-48
2021/03/22 01:00:22;;;;;;;5.20;2.10;;;20.30;42.00;;;;;;5070954;28;20036;-50
2021/03/22 01:02:49;;;;;;;7.57;2.40;;;20.30;41.90;;;;;;5072108;28;20043;-46
2021/03/22 01:05:16;;;;;;;6.60;2.28;;;20.30;41.90;;;;;;5071252;28;20389;-50
2021/03/22 01:07:42;;;;;;;5.03;2.38;;;20.30;41.90;;;;;;5072095;28;20105;-48
2021/03/22 01:10:20;;;;;;;5.03;2.42;;;20.30;41.80;;;;;;5071076;28;20500;-46
2021/03/22 01:12:45;;;;;;;6.80;2.30;;;20.30;41.90;;;;;;5072401;28;20051;-50
2021/03/22 01:15:12;;;;;;;8.35;2.97;;;20.30;41.80;;;;;;5070692;28;20109;-49
2021/03/22 01:17:37;;;;;;;6.78;3.10;;;20.30;41.80;;;;;;5071950;28;20028;-46
2021/03/22 01:20:08;;;;;;;4.45;2.10;;;20.30;41.70;;;;;;5071184;28;20028;-51
2021/03/22 01:22:34;;;;;;;5.78;2.20;;;20.30;41.70;;;;;;5071724;28;20052;-48
2021/03/22 01:25:00;;;;;;;7.65;2.38;;;20.30;41.70;;;;;;5071688;28;20071;-46
2021/03/22 01:27:25;;;;;;;5.85;2.38;;;20.30;41.60;;;;;;5071222;28;20454;-46
2021/03/22 01:29:51;;;;;;;5.82;2.05;;;20.30;41.60;;;;;;5071689;28;20454;-46
2021/03/22 01:32:17;;;;;;;4.93;2.47;;;20.30;41.60;;;;;;5069829;28;20028;-46
2021/03/22 01:34:42;;;;;;;5.03;1.90;;;20.30;41.60;;;;;;5071713;28;20029;-46
2021/03/22 01:37:08;;;;;;;5.10;2.15;;;20.30;41.60;;;;;;5070939;28;20024;-45
2021/03/22 01:39:37;;;;;;;7.15;2.92;;;20.30;41.60;;;;;;5071394;28;20032;-43
2021/03/22 01:42:15;;;;;;;8.35;2.53;;;20.30;41.60;;;;;;5071422;28;20039;-48
2021/03/22 01:44:46;;;;;;;6.57;2.25;;;20.30;41.60;;;;;;5071618;28;20099;-46
2021/03/22 01:47:17;;;;;;;6.03;2.10;;;20.30;41.60;;;;;;5089732;28;20077;-46
2021/03/22 01:49:53;;;;;;;3.70;2.08;;;20.30;41.60;;;;;;5092014;28;20032;-48
2021/03/22 01:52:21;;;;;;;5.60;2.10;;;20.30;41.60;;;;;;5090819;28;20024;-45
2021/03/22 01:54:49;;;;;;;3.97;1.88;;;20.30;41.60;;;;;;5091762;28;20028;-46
2021/03/22 01:57:29;;;;;;;5.10;2.03;;;20.30;41.60;;;;;;5090943;28;20032;-51
2021/03/22 02:00:04;;;;;;;7.28;2.78;;;20.30;41.50;;;;;;5090943;28;20024;-45
2021/03/22 02:02:30;;;;;;;5.68;1.85;;;20.30;41.60;;;;;;5092138;28;20097;-47
2021/03/22 02:04:56;;;;;;;5.72;2.38;;;20.30;41.50;;;;;;5091193;28;20128;-46
2021/03/22 02:07:22;;;;;;;4.63;2.60;;;20.30;41.50;;;;;;5090766;28;20115;-49
2021/03/22 02:09:48;;;;;;;4.50;2.28;;;20.30;41.50;;;;;;5091577;28;20059;-46
2021/03/22 02:12:18;;;;;;;5.40;2.30;;;20.30;41.50;;;;;;5090802;28;20035;-48
2021/03/22 02:14:45;;;;;;;7.43;2.20;;;20.30;41.50;;;;;;5094441;28;20038;-48
2021/03/22 02:17:46;;;;;;;6.90;2.08;;;20.30;41.50;;;;;;5094484;28;20039;-45
2021/03/22 02:20:55;;;;;;;5.68;2.53;;;20.30;41.50;;;;;;5094095;28;20020;-46
2021/03/22 02:23:23;;;;;;;7.78;2.22;;;20.30;41.50;;;;;;5094126;28;20452;-50
2021/03/22 02:26:13;;;;;;;5.45;2.10;;;20.30;41.50;;;;;;5094934;28;20020;-46
2021/03/22 02:28:45;;;;;;;6.30;2.20;;;20.30;41.40;;;;;;5094994;28;20469;-46
2021/03/22 02:31:29;;;;;;;5.28;2.00;;;20.30;41.40;;;;;;5094272;28;20487;-47
2021/03/22 02:34:07;;;;;;;6.70;2.15;;;20.30;41.40;;;;;;5094900;28;20032;-46
2021/03/22 02:37:05;;;;;;;6.70;1.92;;;20.30;41.40;;;;;;5094887;28;20028;-45
2021/03/22 02:39:41;;;;;;;5.43;2.03;;;20.30;41.40;;;;;;5094187;28;20495;-46
2021/03/22 02:42:09;;;;;;;8.02;2.22;;;20.30;41.40;;;;;;5094436;28;20392;-48
2021/03/22 02:44:37;;;;;;;5.53;2.67;;;20.30;41.30;;;;;;5094753;28;20019;-46
2021/03/22 02:47:18;;;;;;;5.03;2.20;;;20.30;41.40;;;;;;5076389;28;20017;-46
2021/03/22 02:49:45;;;;;;;6.22;2.45;;;20.30;41.50;;;;;;5074539;28;20052;-49
2021/03/22 02:52:18;;;;;;;7.15;2.03;;;20.30;41.40;;;;;;5073542;28;20427;-47
2021/03/22 02:54:56;;;;;;;5.85;2.10;;;20.30;41.40;;;;;;5074578;28;20036;-50
2021/03/22 02:57:25;;;;;;;6.68;1.90;;;20.30;41.40;;;;;;5073572;28;20047;-50
2021/03/22 02:59:59;;;;;;;5.38;2.28;;;20.30;41.40;;;;;;5074261;28;20020;-50
2021/03/22 03:02:27;;;;;;;4.63;1.90;;;20.30;41.30;;;;;;5073089;28;20028;-46
2021/03/22 03:04:53;;;;;;;6.78;2.13;;;20.30;41.30;;;;;;5073955;28;20483;-48
2021/03/22 03:07:25;;;;;;;6.22;2.33;;;20.30;41.30;;;;;;5073663;28;20056;-46
2021/03/22 03:09:51;;;;;;;;;;;20.30;41.30;;;;;;5074473;28;20029;-46
2021/03/22 03:12:23;;;;;;;7.22;2.63;;;20.30;41.30;;;;;;5072985;28;20269;-49
2021/03/22 03:14:51;;;;;;;7.13;2.63;;;20.30;41.30;;;;;;5073831;28;20170;-46
2021/03/22 03:17:17;;;;;;;5.93;2.05;;;20.30;41.20;;;;;;5073177;28;20472;-49
2021/03/22 03:19:43;;;;;;;5.97;2.20;;;20.30;41.20;;;;;;5073821;28;20028;-45
2021/03/22 03:22:11;;;;;;;7.78;3.20;;;20.30;41.30;;;;;;5072755;28;20029;-48
2021/03/22 03:24:40;;;;;;;5.10;2.20;;;20.30;41.30;;;;;;5072239;28;20123;-49
2021/03/22 03:27:10;;;;;;;5.45;2.38;;;20.30;41.20;;;;;;5071885;28;20508;-46
2021/03/22 03:29:37;;;;;;;7.60;2.90;;;20.30;41.20;;;;;;5073588;28;20119;-46
2021/03/22 03:32:06;;;;;;;4.65;2.13;;;20.40;41.20;;;;;;5073668;28;20029;-47
2021/03/22 03:34:33;;;;;;;4.85;2.00;;;20.30;41.20;;;;;;5072781;28;20104;-48
2021/03/22 03:36:59;;;;;;;6.88;1.92;;;20.30;41.20;;;;;;5073527;28;20100;-45
2021/03/22 03:39:24;;;;;;;5.38;1.55;;;20.30;41.10;;;;;;5072856;28;20103;-46
2021/03/22 03:41:50;;;;;;;7.03;2.03;;;20.40;41.20;;;;;;5073450;28;20027;-46
2021/03/22 03:44:16;;;;;;;3.80;1.60;;;20.40;41.20;;;;;;5072576;28;20032;-49
2021/03/22 03:46:42;;;;;;;5.25;2.20;;;20.40;41.20;;;;;;5088064;28;20066;-47
2021/03/22 03:49:08;;;;;;;5.50;1.88;;;20.40;41.80;;;;;;5092727;28;20115;-53
2021/03/22 03:51:36;;;;;;;6.88;1.98;;;20.30;41.10;;;;;;5093477;28;20066;-47
2021/03/22 03:54:04;;;;;;;6.03;2.00;;;20.40;41.10;;;;;;5093312;28;20031;-46
2021/03/22 03:56:29;;;;;;;3.78;1.73;;;20.30;41.10;;;;;;5092579;28;20040;-48
2021/03/22 03:58:56;;;;;;;5.40;2.03;;;20.30;41.10;;;;;;5093355;28;20032;-47
2021/03/22 04:01:22;;;;;;;8.00;2.17;;;20.40;41.10;;;;;;5092450;28;20079;-46
2021/03/22 04:03:48;;;;;;;5.30;1.88;;;20.40;41.10;;;;;;5093407;28;20048;-47
2021/03/22 04:06:20;;;;;;;5.72;2.40;;;20.30;41.10;;;;;;5092436;28;20079;-46
2021/03/22 04:08:49;;;;;;;5.95;2.28;;;20.30;41.00;;;;;;5092970;28;20024;-47
2021/03/22 04:11:24;;;;;;;5.13;2.17;;;20.30;41.00;;;;;;5092269;28;20039;-48
2021/03/22 04:13:51;;;;;;;4.53;1.63;;;20.40;41.00;;;;;;5092872;28;20481;-46
2021/03/22 04:16:17;;;;;;;4.82;1.80;;;20.40;41.10;;;;;;5092069;28;20024;-49
2021/03/22 04:18:43;;;;;;;5.55;2.50;;;20.30;41.00;;;;;;5092950;28;20154;-49
2021/03/22 04:21:11;;;;;;;6.30;2.13;;;20.40;41.10;;;;;;5092288;28;20032;-47
2021/03/22 04:23:37;;;;;;;6.00;1.83;;;20.40;41.00;;;;;;5091651;28;20028;-48
2021/03/22 04:26:05;;;;;;;7.88;3.28;;;20.40;41.20;;;;;;5092868;28;20103;-47
2021/03/22 04:28:31;;;;;;;4.85;2.05;;;20.40;41.00;;;;;;5091984;28;20036;-46
2021/03/22 04:30:57;;;;;;;8.63;2.25;;;20.40;41.10;;;;;;5082682;28;20089;-46
2021/03/22 04:33:23;;;;;;;4.45;1.88;;;20.40;41.00;;;;;;5080160;28;20025;-47
2021/03/22 04:35:49;;;;;;;4.43;2.30;;;20.40;41.10;;;;;;5081040;28;20027;-46
2021/03/22 04:38:15;;;;;;;5.25;1.77;;;20.40;41.10;;;;;;5077909;28;20381;-48
2021/03/22 04:40:40;;;;;;;5.65;2.03;;;20.40;41.00;;;;;;5081736;28;20031;-48
2021/03/22 04:43:06;;;;;;;5.18;2.13;;;20.40;41.00;;;;;;5079867;28;20109;-50
2021/03/22 04:45:32;;;;;;;8.68;2.22;;;20.40;41.00;;;;;;5077956;28;20025;-48
2021/03/22 04:47:58;;;;;;;4.40;1.92;;;20.40;41.00;;;;;;5079731;28;20378;-50
2021/03/22 04:50:26;;;;;;;6.95;1.95;;;20.40;41.00;;;;;;5079847;28;20081;-47
2021/03/22 04:52:52;;;;;;;7.80;2.42;;;20.40;41.00;;;;;;5081724;28;20025;-48
2021/03/22 04:55:20;;;;;;;4.75;1.67;;;20.40;41.00;;;;;;5078766;28;20032;-47
2021/03/22 04:57:46;;;;;;;5.18;2.08;;;20.40;41.00;;;;;;5080780;28;20032;-48
2021/03/22 05:00:45;;;;;;;5.03;2.10;;;20.40;41.00;;;;;;5069983;28;20024;-47
2021/03/22 05:03:15;;;;;;;4.75;1.80;;;20.40;40.90;;;;;;5053941;28;20036;-51
2021/03/22 05:05:40;;;;;;;4.45;1.80;;;20.40;41.00;;;;;;5071839;28;20080;-50
2021/03/22 05:08:10;;;;;;;4.03;1.77;;;20.40;41.00;;;;;;5072017;28;20087;-47
2021/03/22 05:10:38;;;;;;;4.00;1.70;;;20.30;40.90;;;;;;5071522;28;20033;-48
2021/03/22 05:13:05;;;;;;;5.47;2.00;;;20.40;41.00;;;;;;5071909;28;20020;-46
2021/03/22 05:15:31;;;;;;;6.40;2.05;;;20.40;41.00;;;;;;5071217;28;20012;-47
2021/03/22 05:17:58;;;;;;;4.88;1.80;;;20.40;41.00;;;;;;5071803;28;20102;-48
2021/03/22 05:20:36;;;;;;;4.80;2.00;;;20.40;41.00;;;;;;5070720;28;20036;-50
2021/03/22 05:23:05;;;;;;;4.40;1.77;;;20.40;41.00;;;;;;5071978;28;20024;-50
2021/03/22 05:25:31;;;;;;;5.70;1.95;;;20.40;40.90;;;;;;5071132;28;20029;-45
2021/03/22 05:27:57;;;;;;;6.32;1.83;;;20.40;40.90;;;;;;5071679;28;20063;-48
2021/03/22 05:30:23;;;;;;;5.25;2.20;;;20.40;40.90;;;;;;5071071;28;20381;-49
2021/03/22 05:32:49;;;;;;;3.47;1.63;;;20.40;40.90;;;;;;5071505;28;20458;-48
2021/03/22 05:35:18;;;;;;;5.75;2.17;;;20.40;40.80;;;;;;5071024;28;20111;-46
2021/03/22 05:37:44;;;;;;;6.60;2.15;;;20.40;40.80;;;;;;5071222;28;20035;-46
2021/03/22 05:40:23;;;;;;;6.55;1.85;;;20.40;40.80;;;;;;5071788;28;20025;-47
2021/03/22 05:43:04;;;;;;;5.50;2.10;;;20.40;40.80;;;;;;5071457;28;20028;-50
2021/03/22 05:45:47;;;;;;;4.25;1.98;;;20.40;40.80;;;;;;5075589;28;20575;-48
2021/03/22 05:48:57;;;;;;;4.18;1.60;;;20.40;40.80;;;;;;5091576;28;20487;-49
2021/03/22 05:51:38;;;;;;;6.35;1.60;;;20.40;40.70;;;;;;5090542;28;20046;-51
2021/03/22 05:54:22;;;;;;;5.43;2.10;;;20.40;40.70;;;;;;5095676;28;20024;-46
2021/03/22 05:56:57;;;;;;;5.30;1.60;;;20.40;40.80;;;;;;5094504;28;20028;-46
2021/03/22 05:59:46;;;;;;;5.40;1.88;;;20.40;40.70;;;;;;5094657;28;20100;-46
2021/03/22 06:02:37;;;;;;;4.93;1.80;;;20.40;40.70;;;;;;5095254;28;20028;-48
2021/03/22 06:05:14;;;;;;;3.65;1.75;;;20.40;40.70;;;;;;5094605;28;20054;-52
2021/03/22 06:07:45;;;;;;;4.10;1.63;;;20.40;40.70;;;;;;5095328;28;20027;-48
2021/03/22 06:10:16;;;;;;;4.88;1.75;;;20.40;40.80;;;;;;5095253;28;20029;-49
2021/03/22 06:12:57;;;;;;;4.40;1.48;;;20.40;40.80;;;;;;5095504;28;20028;-47
2021/03/22 06:15:35;;;;;;;6.18;2.00;;;20.40;40.80;;;;;;5094598;28;20031;-46
2021/03/22 06:18:23;;;;;;;5.47;2.00;;;20.40;40.80;;;;;;5094241;28;20036;-46
2021/03/22 06:20:52;;;;;;;5.55;1.92;;;20.50;40.90;;;;;;5095042;28;20028;-45
2021/03/22 06:23:29;;;;;;;5.70;1.67;;;20.50;40.80;;;;;;5094065;28;20059;-45
2021/03/22 06:25:54;;;;;;;5.30;1.48;;;20.50;40.80;;;;;;5095272;28;20039;-46
2021/03/22 06:28:22;;;;;;;5.88;2.00;;;20.50;40.80;;;;;;5094124;28;20032;-48
2021/03/22 06:31:10;;;;;;;5.85;2.00;;;20.50;40.80;;;;;;5095292;28;20487;-49
2021/03/22 06:33:39;;;;;;;3.42;1.65;;;20.50;40.80;;;;;;5094273;28;20111;-48
2021/03/22 06:36:07;;;;;;;3.88;1.60;;;20.50;40.80;;;;;;5094875;28;20059;-49
2021/03/22 06:38:33;;;;;;;4.88;1.50;;;20.50;40.80;;;;;;5093809;28;20031;-49
2021/03/22 06:41:19;;;;;;;6.55;2.20;;;20.50;40.80;;;;;;5094635;28;20031;-49
2021/03/22 06:43:52;;;;;;;5.43;2.20;;;20.50;40.80;;;;;;5094369;28;20020;-45
2021/03/22 06:46:18;;;;;;;4.32;1.83;;;20.50;40.90;;;;;;5081652;28;20029;-47
2021/03/22 06:48:59;;;;;;;3.05;1.30;;;20.50;40.90;;;;;;5073703;28;20428;-50
2021/03/22 06:51:25;;;;;;;3.65;1.92;;;20.50;41.00;;;;;;5073040;28;20070;-48
2021/03/22 06:53:54;;;;;;;9.43;3.22;;;20.50;41.00;;;;;;5073948;28;20068;-46
2021/03/22 06:56:19;;;;;;;6.38;1.58;;;20.50;41.00;;;;;;5073576;28;20029;-48
2021/03/22 06:58:47;;;;;;;7.05;1.70;;;20.50;41.30;;;;;;5074288;28;20515;-46
2021/03/22 07:01:31;;;;;;;5.50;1.60;;;20.50;41.30;;;;;;5072956;28;20028;-52
2021/03/22 07:04:17;;;;;;;7.28;2.00;;;20.50;41.40;;;;;;5074193;28;20441;-48
2021/03/22 07:06:43;;;;;;;6.45;2.08;;;20.50;41.50;;;;;;5085784;28;20048;-49
2021/03/22 07:09:32;;;;;;;4.38;1.73;;;20.60;41.50;;;;;;5075564;28;20035;-47
2021/03/22 07:11:58;;;;;;;17.50;2.83;;;20.60;41.90;;;;;;5074106;28;20111;-47
2021/03/22 07:14:26;;;;;;;13.52;2.05;;;20.50;42.00;;;;;;5071959;28;20033;-48
2021/03/22 07:17:06;;;;;;;17.30;3.47;;;20.50;42.30;;;;;;5073956;28;20024;-45
2021/03/22 07:19:34;;;;;;;11.60;2.92;;;20.60;42.50;;;;;;5073200;28;20025;-48
2021/03/22 07:22:05;;;;;;;8.88;2.03;;;20.60;42.80;;;;;;5071358;28;20032;-46
2021/03/22 07:24:49;;;;;;;12.65;2.90;;;20.60;42.70;;;;;;5085291;28;20111;-50
2021/03/22 07:27:39;;;;;;;16.35;2.28;;;20.50;43.00;;;;;;5093574;28;20032;-49
2021/03/22 07:30:36;;;;;;;13.60;2.42;;;20.50;43.30;;;;;;5094218;28;20024;-49
2021/03/22 07:33:08;;;;;;;6.88;1.98;;;20.50;43.20;;;;;;5093822;28;20028;-47
2021/03/22 07:35:54;;;;;;;15.60;3.17;;;20.50;43.30;;;;;;5093052;28;20465;-48
2021/03/22 07:38:41;;;;;;;13.60;2.63;;;20.50;43.50;;;;;;5092535;28;20158;-50
2021/03/22 07:41:38;;;;;;;9.43;2.83;;;20.60;43.50;;;;;;5093699;28;20032;-50
2021/03/22 07:44:41;;;;;;;6.28;2.00;;;20.50;43.40;;;;;;5069900;28;20040;-51
2021/03/22 07:47:29;;;;;;;11.27;2.17;;;20.60;43.60;;;;;;5074879;28;20029;-49
2021/03/22 07:50:20;;;;;;;7.28;2.22;;;20.60;43.70;;;;;;5072961;28;20021;-46
2021/03/22 07:53:02;;;;;;;7.45;2.50;;;20.60;43.60;;;;;;5073384;28;20017;-46
2021/03/22 07:55:44;;;;;;;7.63;2.20;;;20.60;43.70;;;;;;5072419;28;20039;-47
2021/03/22 07:58:40;;;;;;;7.38;2.03;;;20.60;43.70;;;;;;5073243;28;20047;-45
2021/03/22 08:01:26;;;;;;;12.80;2.65;;;20.50;43.60;;;;;;5072818;28;20028;-46
2021/03/22 08:04:17;;;;;;;8.23;1.98;;;20.60;43.70;;;;;;5073139;28;20025;-46
2021/03/22 08:07:12;;;;;;;7.68;1.92;;;20.60;43.70;;;;;;5073226;28;20044;-48
2021/03/22 08:09:57;;;;;;;7.20;1.75;;;20.60;43.70;;;;;;5071595;28;20032;-48
2021/03/22 08:12:22;;;;;;;6.53;2.03;;;20.50;44.30;;;;;;5075521;28;20024;-48
2021/03/22 08:14:56;;;;;;;7.10;2.30;;;20.60;43.70;;;;;;5086024;28;20161;-48
2021/03/22 08:17:44;;;;;;;8.68;2.20;;;20.60;43.60;;;;;;5083433;28;20028;-49
2021/03/22 08:20:22;;;;;;;8.63;2.00;;;20.60;43.60;;;;;;5092844;28;20023;-52
2021/03/22 08:23:21;;;;;;;5.82;1.95;;;20.60;43.40;;;;;;5092788;28;20354;-49
2021/03/22 08:25:53;;;;;;;9.32;2.20;;;20.60;43.60;;;;;;5091866;28;20036;-47
2021/03/22 08:28:31;;;;;;;7.70;2.00;;;20.60;43.60;;;;;;5091977;28;20074;-51
2021/03/22 08:31:25;;;;;;;5.43;1.73;;;20.60;43.50;;;;;;5092891;28;20382;-50
2021/03/22 08:34:02;;;;;;;6.18;2.13;;;20.60;43.60;;;;;;5092359;28;20469;-46
2021/03/22 08:37:03;;;;;;;4.95;1.88;;;20.60;43.50;;;;;;5092093;28;20051;-50
2021/03/22 08:39:38;;;;;;;8.77;1.88;;;20.60;43.60;;;;;;5091358;28;20036;-50
2021/03/22 08:42:11;;;;;;;5.68;2.30;;;20.60;43.30;;;;;;5082602;28;20044;-48
2021/03/22 08:44:54;;;;;;;6.00;1.45;;;20.60;43.40;;;;;;5092010;28;20049;-51
2021/03/22 08:47:35;;;;;;;6.40;2.10;;;20.60;43.40;;;;;;5078077;28;20032;-52
2021/03/22 08:50:24;;;;;;;5.53;1.70;;;20.60;43.40;;;;;;5078905;28;20024;-52
2021/03/22 08:53:18;;;;;;;5.68;2.28;;;20.60;43.50;;;;;;5081840;28;20368;-50
2021/03/22 08:55:54;;;;;;;5.65;1.83;;;20.60;43.50;;;;;;5087430;28;20036;-48
2021/03/22 08:58:36;;;;;;;4.63;1.40;;;20.60;43.60;;;;;;5079884;28;20041;-50
2021/03/22 09:01:08;;;;;;;5.72;1.83;;;20.60;43.50;;;;;;5073838;28;20040;-50
2021/03/22 09:03:39;;;;;;;5.00;1.52;;;20.60;43.50;;;;;;5074843;28;20101;-48
2021/03/22 09:06:15;;;;;;;4.53;1.95;;;20.60;43.40;;;;;;5087278;28;20048;-47
2021/03/22 09:08:50;;;;;;;7.40;1.50;;;20.60;43.50;;;;;;5089993;28;20059;-47
2021/03/22 09:11:27;;;;;;;4.20;1.70;;;20.70;43.90;;;;;;5088721;28;20036;-45
2021/03/22 09:14:17;;;;;;;6.65;1.52;;;20.70;43.50;;;;;;5076166;28;20024;-48
2021/03/22 09:16:46;;;;;;;5.78;1.60;;;20.60;43.50;;;;;;5077503;28;20111;-48
2021/03/22 09:19:12;;;;;;;9.32;1.60;;;20.70;43.70;;;;;;5086147;28;20028;-49
2021/03/22 09:21:40;;;;;;;3.67;1.20;;;20.60;43.60;;;;;;5083726;28;20110;-51
2021/03/22 09:24:37;;;;;;;3.90;1.48;;;20.70;43.80;;;;;;5088657;28;20030;-50
2021/03/22 09:27:20;;;;;;;6.38;1.33;;;20.60;43.60;;;;;;5079215;28;20036;-49
2021/03/22 09:30:00;;;;;;;8.43;1.70;;;20.70;43.60;;;;;;5088352;28;20106;-49
2021/03/22 09:32:27;;;;;;;3.92;1.55;;;20.70;43.50;;;;;;5084005;28;20435;-50
2021/03/22 09:35:05;;;;;;;6.30;2.20;;;20.70;43.60;;;;;;5077927;28;20027;-47
2021/03/22 09:38:19;;;;;;;3.42;1.40;;;20.70;43.50;;;;;;5079876;28;20039;-47
2021/03/22 09:40:55;;;;;;;5.00;1.70;;;20.60;43.50;;;;;;5081322;28;20028;-49
2021/03/22 09:43:28;;;;;;;4.55;1.33;;;20.60;43.50;;;;;;5075408;28;20036;-50
2021/03/22 09:45:54;;;;;;;3.67;1.15;;;20.60;43.30;;;;;;5078771;28;20388;-48
2021/03/22 09:48:22;;;;;;;5.43;1.40;;;20.60;43.40;;;;;;5079553;28;20362;-52
2021/03/22 09:50:51;;;;;;;5.93;1.70;;;20.60;43.30;;;;;;5081392;28;20036;-48
2021/03/22 09:53:26;;;;;;;5.97;1.63;;;20.60;43.20;;;;;;5072423;28;20040;-49
2021/03/22 09:55:52;;;;;;;5.63;1.35;;;20.60;43.30;;;;;;5072626;28;20036;-48
2021/03/22 09:58:39;;;;;;;5.03;1.30;;;20.60;43.20;;;;;;5074434;28;20169;-51
2021/03/22 10:01:28;;;;;;;3.03;0.90;;;20.60;43.20;;;;;;5090515;28;20369;-48
2021/03/22 10:04:23;;;;;;;4.80;1.38;;;20.60;43.20;;;;;;5081428;28;20029;-47
2021/03/22 10:07:00;;;;;;;6.10;1.50;;;20.70;43.10;;;;;;5090173;28;20443;-50
2021/03/22 10:09:35;;;;;;;3.33;1.25;;;20.60;43.10;;;;;;5089167;28;20032;-46
2021/03/22 10:12:16;;;;;;;3.50;1.20;;;20.60;43.00;;;;;;5073095;28;20029;-48
2021/03/22 10:14:47;;;;;;;4.05;1.30;;;20.60;43.00;;;;;;5070353;28;20056;-50
2021/03/22 10:17:28;;;;;;;2.55;1.42;;;20.60;43.00;;;;;;5079162;28;20111;-49
2021/03/22 10:20:00;;;;;;;3.60;1.25;;;20.60;43.00;;;;;;5090301;28;20016;-50
2021/03/22 10:22:27;;;;;;;4.55;1.33;;;20.60;42.90;;;;;;5077601;28;20028;-47
2021/03/22 10:25:10;;;;;;;3.88;1.58;;;20.60;42.90;;;;;;5086994;28;20050;-47
2021/03/22 10:27:38;;;;;;;4.97;1.30;;;20.70;42.90;;;;;;5079534;28;20040;-46
2021/03/22 10:30:15;;;;;;;5.15;1.58;;;20.60;42.80;;;;;;5088926;28;20040;-47
2021/03/22 10:33:06;;;;;;;5.30;1.48;;;20.60;42.80;;;;;;5088419;28;20630;-49
2021/03/22 10:35:52;;;;;;;6.38;2.00;;;20.60;42.70;;;;;;5078654;28;20028;-50
2021/03/22 10:38:30;;;;;;;3.40;1.30;;;20.60;42.70;;;;;;5074499;28;20496;-51
2021/03/22 10:40:58;;;;;;;3.97;1.25;;;20.60;42.70;;;;;;5084921;28;20040;-46
2021/03/22 10:43:39;;;;;;;1.95;1.10;;;20.60;42.60;;;;;;5093143;28;20530;-47
2021/03/22 10:46:23;;;;;;;3.37;1.00;;;20.60;43.20;;;;;;5083778;28;20056;-52
2021/03/22 10:48:59;;;;;;;4.70;1.63;;;20.60;42.50;;;;;;5074317;28;20294;-49
2021/03/22 10:51:46;;;;;;;3.78;1.35;;;20.60;42.50;;;;;;5085212;28;20058;-50
2021/03/22 10:54:15;;;;;;;2.67;1.27;;;20.60;42.50;;;;;;5086878;28;20059;-47
2021/03/22 10:56:56;;;;;;;3.92;1.30;;;20.60;42.40;;;;;;5085581;28;20033;-46
2021/03/22 10:59:25;;;;;;;2.95;1.00;;;20.60;42.40;;;;;;5082236;28;20043;-51
2021/03/22 11:01:54;;;;;;;4.65;1.20;;;20.60;42.30;;;;;;5093275;28;20031;-48
2021/03/22 11:04:33;;;;;;;3.92;1.10;;;20.60;42.30;;;;;;5085507;28;20444;-53
2021/03/22 11:07:14;;;;;;;2.85;0.93;;;20.60;42.50;;;;;;5082814;28;20041;-51
2021/03/22 11:09:50;;;;;;;6.72;1.40;;;20.60;42.50;;;;;;5074126;28;20041;-51
2021/03/22 11:12:16;;;;;;;3.22;1.33;;;20.70;42.70;;;;;;5081769;28;20033;-51
2021/03/22 11:14:42;;;;;;;4.80;1.30;;;20.60;42.80;;;;;;5072866;28;20028;-48
2021/03/22 11:17:26;;;;;;;4.20;1.00;;;20.60;43.00;;;;;;5081059;28;20118;-47
2021/03/22 11:19:53;;;;;;;3.42;1.20;;;20.70;42.80;;;;;;5089985;28;20033;-49
2021/03/22 11:22:29;;;;;;;3.78;1.33;;;20.60;42.70;;;;;;5075942;28;20024;-49
2021/03/22 11:24:56;;;;;;;3.72;1.13;;;20.60;42.80;;;;;;5085892;28;20028;-50
2021/03/22 11:27:25;;;;;;;4.35;1.05;;;20.70;42.70;;;;;;5091649;28;20036;-55
2021/03/22 11:29:56;;;;;;;3.35;1.08;;;20.80;42.60;;;;;;5075203;28;20033;-58
2021/03/22 11:32:25;;;;;;;5.90;1.92;;;20.70;42.80;;;;;;5073182;28;20031;-56
2021/03/22 11:34:53;;;;;;;5.30;1.30;;;20.70;42.80;;;;;;5089209;28;20024;-59
2021/03/22 11:37:24;;;;;;;4.22;1.10;;;20.80;42.80;;;;;;5073404;28;20032;-58
2021/03/22 11:40:04;;;;;;;2.53;1.33;;;20.70;42.70;;;;;;5079848;28;20039;-60
2021/03/22 11:42:36;;;;;;;2.60;1.23;;;20.70;43.00;;;;;;5091830;28;20028;-60
2021/03/22 11:45:22;;;;;;;3.70;1.23;;;20.80;42.90;;;;;;5088185;28;20387;-58
2021/03/22 11:47:48;;;;;;;2.95;1.05;;;20.80;43.10;;;;;;5071595;28;20119;-57
2021/03/22 11:50:44;;;;;;;3.22;0.98;;;20.90;43.30;;;;;;5073013;28;20021;-57
2021/03/22 11:53:19;;;;;;;4.32;1.35;;;20.80;44.40;;;;;;5079986;28;20032;-57
2021/03/22 11:55:53;;;;;;;2.83;1.60;;;20.80;46.50;;;;;;5091465;28;20035;-55
2021/03/22 11:58:42;;;;;;;2.80;1.13;;;20.80;46.90;;;;;;5080043;28;20068;-59
2021/03/22 12:01:25;;;;;;;3.80;1.00;;;20.80;47.20;;;;;;5073605;28;20521;-59
2021/03/22 12:04:12;;;;;;;5.78;1.15;;;20.80;47.30;;;;;;5088952;28;20024;-58
2021/03/22 12:07:10;;;;;;;2.15;0.90;;;20.80;46.60;;;;;;5082545;28;20045;-57
2021/03/22 12:09:40;;;;;;;3.08;0.93;;;20.80;47.70;;;;;;5068156;28;20058;-56
2021/03/22 12:12:12;;;;;;;3.15;1.00;;;20.80;48.10;;;;;;5082347;28;20020;-58
2021/03/22 12:14:38;;;;;;;4.75;1.00;;;20.80;48.30;;;;;;5089703;28;20049;-58
2021/03/22 12:17:15;;;;;;;3.47;1.15;;;20.70;48.30;;;;;;5085547;28;20024;-56
2021/03/22 12:19:42;;;;;;;1.58;0.60;;;20.70;48.70;;;;;;5090596;28;20035;-56
2021/03/22 12:22:15;;;;;;;1.73;1.00;;;20.70;48.80;;;;;;5073235;28;20027;-58
2021/03/22 12:24:41;;;;;;;3.83;1.42;;;20.70;48.80;;;;;;5083873;28;20047;-58
2021/03/22 12:27:15;;;;;;;2.75;1.05;;;20.70;49.00;;;;;;5079114;28;20068;-58
2021/03/22 12:29:42;;;;;;;3.03;1.10;;;20.70;49.30;;;;;;5091161;28;20127;-59
2021/03/22 12:32:13;;;;;;;2.55;0.90;;;20.60;49.30;;;;;;5092892;28;20028;-57
2021/03/22 12:34:39;;;;;;;3.60;0.70;;;20.60;49.30;;;;;;5091481;28;20020;-55
2021/03/22 12:37:05;;;;;;;2.53;1.00;;;20.60;49.70;;;;;;5092545;28;20031;-58
2021/03/22 12:39:36;;;;;;;3.70;1.10;;;20.60;49.80;;;;;;5087447;28;20028;-56
2021/03/22 12:42:09;;;;;;;3.40;1.03;;;20.60;49.90;;;;;;5079067;28;20028;-58
2021/03/22 12:44:34;;;;;;;2.05;1.08;;;20.60;50.00;;;;;;5071693;28;20300;-58
2021/03/22 12:47:00;;;;;;;4.47;1.20;;;20.60;50.00;;;;;;5088799;28;20028;-58
2021/03/22 12:49:26;;;;;;;3.05;1.00;;;20.60;50.10;;;;;;5090914;28;20050;-58
2021/03/22 12:51:52;;;;;;;1.98;0.98;;;20.60;50.10;;;;;;5077948;28;20094;-58
2021/03/22 12:54:18;;;;;;;2.42;1.00;;;20.50;50.30;;;;;;5078731;28;20029;-58
2021/03/22 12:56:44;;;;;;;5.13;1.10;;;20.50;50.30;;;;;;5083529;28;20024;-58
2021/03/22 12:59:34;;;;;;;1.98;0.80;;;20.50;50.50;;;;;;5088831;28;20029;-57
2021/03/22 13:02:03;;;;;;;2.85;1.00;;;20.50;50.40;;;;;;5082343;28;20032;-56
2021/03/22 13:04:30;;;;;;;3.92;1.70;;;20.50;50.70;;;;;;5083209;28;20461;-53
2021/03/22 13:06:55;;;;;;;3.60;1.38;;;20.50;50.80;;;;;;5077902;28;20043;-57
2021/03/22 13:09:21;;;;;;;2.67;0.90;;;20.50;51.00;;;;;;5078714;28;20032;-57
2021/03/22 13:11:47;;;;;;;2.58;0.95;;;20.50;51.00;;;;;;5070778;28;20037;-58
2021/03/22 13:14:20;;;;;;;4.07;0.98;;;20.50;50.80;;;;;;5089300;28;20346;-58
2021/03/22 13:16:46;;;;;;;2.60;0.88;;;20.50;50.60;;;;;;5070019;28;20044;-58
2021/03/22 13:19:13;;;;;;;3.40;0.95;;;20.50;51.00;;;;;;5071572;28;20032;-58